sensor_id;sensor_type;location;lat;lon;timestamp;P1;durP1;ratioP1;P2;durP2;ratioP2
12721;SDS011;6425;50.316;8.114;2022-08-30T00:00:08;4.00;;;1.80;;
12721;SDS011;6425;50.316;8.114;2022-08-30T00:05:12;6.60;;;1.50;;
12721;SDS011;6425;50.316;8.114;2022-08-30T00:10:16;4.57;;;1.90;;
12721;SDS011;6425;50.316;8.114;2022-08-30T00:15:17;2.90;;;1.30;;
12721;SDS011;6425;50.316;8.114;2022-08-30T00:20:19;4.73;;;1.60;;
12721;SDS011;6425;50.316;8.114;2022-08-30T00:25:23;3.50;;;1.73;;
12721;SDS011;6425;50.316;8.114;2022-08-30T00:30:24;4.80;;;1.87;;
12721;SDS011;6425;50.316;8.114;2022-08-30T00:35:24;6.40;;;2.10;;
12721;SDS011;6425;50.316;8.114;2022-08-30T00:40:26;6.93;;;2.03;;
12721;SDS011;6425;50.316;8.114;2022-08-30T00:45:28;5.20;;;1.87;;
12721;SDS011;6425;50.316;8.114;2022-08-30T00:50:32;5.27;;;1.83;;
12721;SDS011;6425;50.316;8.114;2022-08-30T00:55:38;5.00;;;2.40;;
12721;SDS011;6425;50.316;8.114;2022-08-30T01:00:39;5.33;;;1.50;;
12721;SDS011;6425;50.316;8.114;2022-08-30T01:05:40;5.43;;;2.37;;
12721;SDS011;6425;50.316;8.114;2022-08-30T01:10:42;4.37;;;1.80;;
12721;SDS011;6425;50.316;8.114;2022-08-30T01:15:43;4.00;;;1.77;;
12721;SDS011;6425;50.316;8.114;2022-08-30T01:20:46;4.27;;;1.80;;
12721;SDS011;6425;50.316;8.114;2022-08-30T01:25:54;5.87;;;1.73;;
12721;SDS011;6425;50.316;8.114;2022-08-30T01:30:55;3.70;;;1.70;;
12721;SDS011;6425;50.316;8.114;2022-08-30T01:35:56;3.70;;;1.73;;
12721;SDS011;6425;50.316;8.114;2022-08-30T01:41:06;4.03;;;1.93;;
12721;SDS011;6425;50.316;8.114;2022-08-30T01:46:10;6.23;;;1.93;;
12721;SDS011;6425;50.316;8.114;2022-08-30T01:51:12;8.37;;;2.17;;
12721;SDS011;6425;50.316;8.114;2022-08-30T01:56:15;6.03;;;1.80;;
12721;SDS011;6425;50.316;8.114;2022-08-30T02:01:16;6.73;;;2.40;;
12721;SDS011;6425;50.316;8.114;2022-08-30T02:06:19;3.73;;;1.90;;
12721;SDS011;6425;50.316;8.114;2022-08-30T02:11:21;6.97;;;1.80;;
12721;SDS011;6425;50.316;8.114;2022-08-30T02:16:22;7.63;;;2.20;;
12721;SDS011;6425;50.316;8.114;2022-08-30T02:21:24;5.43;;;2.27;;
12721;SDS011;6425;50.316;8.114;2022-08-30T02:26:26;4.43;;;1.83;;
12721;SDS011;6425;50.316;8.114;2022-08-30T02:31:27;5.40;;;2.10;;
12721;SDS011;6425;50.316;8.114;2022-08-30T02:36:27;4.73;;;2.60;;
12721;SDS011;6425;50.316;8.114;2022-08-30T02:41:29;4.50;;;2.00;;
12721;SDS011;6425;50.316;8.114;2022-08-30T02:46:30;4.80;;;2.20;;
12721;SDS011;6425;50.316;8.114;2022-08-30T02:51:30;6.00;;;1.97;;
12721;SDS011;6425;50.316;8.114;2022-08-30T02:56:32;4.17;;;1.77;;
12721;SDS011;6425;50.316;8.114;2022-08-30T03:01:33;6.83;;;3.40;;
12721;SDS011;6425;50.316;8.114;2022-08-30T03:06:33;5.67;;;2.20;;
12721;SDS011;6425;50.316;8.114;2022-08-30T03:11:35;4.27;;;2.20;;
12721;SDS011;6425;50.316;8.114;2022-08-30T03:16:36;5.90;;;2.03;;
12721;SDS011;6425;50.316;8.114;2022-08-30T03:21:36;8.33;;;2.27;;
12721;SDS011;6425;50.316;8.114;2022-08-30T03:26:38;5.43;;;2.00;;
12721;SDS011;6425;50.316;8.114;2022-08-30T03:31:39;3.37;;;1.93;;
12721;SDS011;6425;50.316;8.114;2022-08-30T03:36:39;5.03;;;1.90;;
12721;SDS011;6425;50.316;8.114;2022-08-30T03:41:41;7.33;;;2.40;;
12721;SDS011;6425;50.316;8.114;2022-08-30T03:46:42;4.03;;;2.17;;
12721;SDS011;6425;50.316;8.114;2022-08-30T03:51:43;7.57;;;2.37;;
12721;SDS011;6425;50.316;8.114;2022-08-30T03:56:44;5.90;;;2.00;;
12721;SDS011;6425;50.316;8.114;2022-08-30T04:01:45;2.63;;;1.60;;
12721;SDS011;6425;50.316;8.114;2022-08-30T04:06:45;5.37;;;2.30;;
12721;SDS011;6425;50.316;8.114;2022-08-30T04:11:47;5.37;;;2.53;;
12721;SDS011;6425;50.316;8.114;2022-08-30T04:16:49;4.73;;;2.03;;
12721;SDS011;6425;50.316;8.114;2022-08-30T04:21:50;5.13;;;2.20;;
12721;SDS011;6425;50.316;8.114;2022-08-30T04:26:51;5.27;;;1.83;;
12721;SDS011;6425;50.316;8.114;2022-08-30T04:31:52;6.07;;;2.30;;
12721;SDS011;6425;50.316;8.114;2022-08-30T04:36:52;5.80;;;1.97;;
12721;SDS011;6425;50.316;8.114;2022-08-30T04:41:54;5.30;;;1.97;;
12721;SDS011;6425;50.316;8.114;2022-08-30T04:46:55;5.00;;;2.10;;
12721;SDS011;6425;50.316;8.114;2022-08-30T04:51:55;5.97;;;2.53;;
12721;SDS011;6425;50.316;8.114;2022-08-30T04:56:57;2.93;;;2.00;;
12721;SDS011;6425;50.316;8.114;2022-08-30T05:01:58;5.53;;;2.10;;
12721;SDS011;6425;50.316;8.114;2022-08-30T05:06:58;6.93;;;2.47;;
12721;SDS011;6425;50.316;8.114;2022-08-30T05:12:00;6.07;;;2.13;;
12721;SDS011;6425;50.316;8.114;2022-08-30T05:17:01;4.73;;;2.40;;
12721;SDS011;6425;50.316;8.114;2022-08-30T05:22:01;10.20;;;2.40;;
12721;SDS011;6425;50.316;8.114;2022-08-30T05:27:04;8.57;;;2.80;;
12721;SDS011;6425;50.316;8.114;2022-08-30T05:32:04;8.63;;;2.70;;
12721;SDS011;6425;50.316;8.114;2022-08-30T05:37:05;12.67;;;2.80;;
12721;SDS011;6425;50.316;8.114;2022-08-30T05:42:07;4.13;;;2.20;;
12721;SDS011;6425;50.316;8.114;2022-08-30T05:47:07;6.77;;;2.40;;
12721;SDS011;6425;50.316;8.114;2022-08-30T05:52:07;6.20;;;2.57;;
12721;SDS011;6425;50.316;8.114;2022-08-30T05:57:10;6.97;;;2.10;;
12721;SDS011;6425;50.316;8.114;2022-08-30T06:02:10;6.53;;;2.20;;
12721;SDS011;6425;50.316;8.114;2022-08-30T06:07:11;9.13;;;2.53;;
12721;SDS011;6425;50.316;8.114;2022-08-30T06:12:13;6.97;;;2.40;;
12721;SDS011;6425;50.316;8.114;2022-08-30T06:17:13;5.40;;;2.43;;
12721;SDS011;6425;50.316;8.114;2022-08-30T06:22:14;4.43;;;2.20;;
12721;SDS011;6425;50.316;8.114;2022-08-30T06:27:15;4.73;;;2.20;;
12721;SDS011;6425;50.316;8.114;2022-08-30T06:32:16;4.83;;;2.57;;
12721;SDS011;6425;50.316;8.114;2022-08-30T06:37:16;4.77;;;2.37;;
12721;SDS011;6425;50.316;8.114;2022-08-30T06:42:18;4.40;;;2.00;;
12721;SDS011;6425;50.316;8.114;2022-08-30T06:47:19;3.20;;;2.43;;
12721;SDS011;6425;50.316;8.114;2022-08-30T06:52:19;4.33;;;1.83;;
12721;SDS011;6425;50.316;8.114;2022-08-30T06:57:21;5.00;;;2.27;;
12721;SDS011;6425;50.316;8.114;2022-08-30T07:02:22;6.03;;;2.10;;
12721;SDS011;6425;50.316;8.114;2022-08-30T07:07:22;3.97;;;2.20;;
12721;SDS011;6425;50.316;8.114;2022-08-30T07:12:24;18.57;;;3.23;;
12721;SDS011;6425;50.316;8.114;2022-08-30T07:17:25;7.73;;;2.97;;
12721;SDS011;6425;50.316;8.114;2022-08-30T07:22:25;8.97;;;2.17;;
12721;SDS011;6425;50.316;8.114;2022-08-30T07:27:27;6.73;;;2.40;;
12721;SDS011;6425;50.316;8.114;2022-08-30T07:32:28;7.67;;;2.97;;
12721;SDS011;6425;50.316;8.114;2022-08-30T07:37:28;8.57;;;2.70;;
12721;SDS011;6425;50.316;8.114;2022-08-30T07:42:30;6.23;;;2.70;;
12721;SDS011;6425;50.316;8.114;2022-08-30T07:47:31;12.90;;;2.87;;
12721;SDS011;6425;50.316;8.114;2022-08-30T07:52:32;11.43;;;2.93;;
12721;SDS011;6425;50.316;8.114;2022-08-30T07:57:34;13.07;;;3.13;;
12721;SDS011;6425;50.316;8.114;2022-08-30T08:02:34;13.10;;;2.60;;
12721;SDS011;6425;50.316;8.114;2022-08-30T08:07:35;21.00;;;3.03;;
12721;SDS011;6425;50.316;8.114;2022-08-30T08:12:37;16.40;;;2.90;;
12721;SDS011;6425;50.316;8.114;2022-08-30T08:17:37;21.37;;;2.87;;
12721;SDS011;6425;50.316;8.114;2022-08-30T08:22:38;14.40;;;2.90;;
12721;SDS011;6425;50.316;8.114;2022-08-30T08:27:39;5.30;;;2.50;;
12721;SDS011;6425;50.316;8.114;2022-08-30T08:32:40;8.67;;;2.40;;
12721;SDS011;6425;50.316;8.114;2022-08-30T08:37:41;11.63;;;2.17;;
12721;SDS011;6425;50.316;8.114;2022-08-30T08:42:47;8.70;;;2.17;;
12721;SDS011;6425;50.316;8.114;2022-08-30T08:47:56;5.63;;;2.37;;
12721;SDS011;6425;50.316;8.114;2022-08-30T08:53:01;4.07;;;2.00;;
12721;SDS011;6425;50.316;8.114;2022-08-30T08:58:07;6.73;;;5.07;;
12721;SDS011;6425;50.316;8.114;2022-08-30T09:03:19;5.30;;;4.80;;
12721;SDS011;6425;50.316;8.114;2022-08-30T09:08:21;9.00;;;4.90;;
12721;SDS011;6425;50.316;8.114;2022-08-30T09:13:24;26.77;;;3.83;;
12721;SDS011;6425;50.316;8.114;2022-08-30T09:18:39;7.30;;;2.30;;
12721;SDS011;6425;50.316;8.114;2022-08-30T09:23:46;9.47;;;2.67;;
12721;SDS011;6425;50.316;8.114;2022-08-30T09:28:49;7.33;;;2.23;;
12721;SDS011;6425;50.316;8.114;2022-08-30T09:33:54;3.63;;;2.30;;
12721;SDS011;6425;50.316;8.114;2022-08-30T09:38:56;7.97;;;1.93;;
12721;SDS011;6425;50.316;8.114;2022-08-30T09:44:04;5.07;;;2.67;;
12721;SDS011;6425;50.316;8.114;2022-08-30T09:49:16;5.80;;;5.20;;
12721;SDS011;6425;50.316;8.114;2022-08-30T09:54:29;6.57;;;5.57;;
12721;SDS011;6425;50.316;8.114;2022-08-30T09:59:44;7.43;;;2.80;;
12721;SDS011;6425;50.316;8.114;2022-08-30T10:04:53;7.03;;;2.77;;
12721;SDS011;6425;50.316;8.114;2022-08-30T10:10:03;6.73;;;2.50;;
12721;SDS011;6425;50.316;8.114;2022-08-30T10:15:15;5.23;;;2.20;;
12721;SDS011;6425;50.316;8.114;2022-08-30T10:20:25;6.53;;;2.27;;
12721;SDS011;6425;50.316;8.114;2022-08-30T10:25:31;3.90;;;2.20;;
12721;SDS011;6425;50.316;8.114;2022-08-30T10:30:37;1.97;;;1.87;;
12721;SDS011;6425;50.316;8.114;2022-08-30T10:35:40;4.40;;;2.43;;
12721;SDS011;6425;50.316;8.114;2022-08-30T10:40:46;2.57;;;2.10;;
12721;SDS011;6425;50.316;8.114;2022-08-30T10:45:50;4.20;;;2.03;;
12721;SDS011;6425;50.316;8.114;2022-08-30T10:50:56;7.93;;;2.37;;
12721;SDS011;6425;50.316;8.114;2022-08-30T10:56:04;2.63;;;2.07;;
12721;SDS011;6425;50.316;8.114;2022-08-30T11:01:21;4.03;;;2.00;;
12721;SDS011;6425;50.316;8.114;2022-08-30T11:06:33;3.07;;;2.33;;
12721;SDS011;6425;50.316;8.114;2022-08-30T11:11:40;6.37;;;2.80;;
12721;SDS011;6425;50.316;8.114;2022-08-30T11:16:58;4.53;;;3.40;;
12721;SDS011;6425;50.316;8.114;2022-08-30T11:22:07;3.23;;;2.93;;
12721;SDS011;6425;50.316;8.114;2022-08-30T11:38:09;3.20;;;2.90;;
12721;SDS011;6425;50.316;8.114;2022-08-30T11:48:52;5.50;;;3.60;;
12721;SDS011;6425;50.316;8.114;2022-08-30T11:53:57;3.70;;;3.40;;
12721;SDS011;6425;50.316;8.114;2022-08-30T11:59:06;4.70;;;3.80;;
12721;SDS011;6425;50.316;8.114;2022-08-30T12:04:27;3.90;;;3.60;;
12721;SDS011;6425;50.316;8.114;2022-08-30T12:15:02;3.43;;;3.13;;
12721;SDS011;6425;50.316;8.114;2022-08-30T12:20:05;6.13;;;3.53;;
12721;SDS011;6425;50.316;8.114;2022-08-30T12:25:16;4.10;;;3.80;;
12721;SDS011;6425;50.316;8.114;2022-08-30T12:30:24;4.60;;;3.83;;
12721;SDS011;6425;50.316;8.114;2022-08-30T12:35:27;5.07;;;3.07;;
12721;SDS011;6425;50.316;8.114;2022-08-30T12:40:28;5.10;;;3.00;;
12721;SDS011;6425;50.316;8.114;2022-08-30T12:45:31;5.13;;;3.60;;
12721;SDS011;6425;50.316;8.114;2022-08-30T12:50:42;3.50;;;3.20;;
12721;SDS011;6425;50.316;8.114;2022-08-30T12:55:49;4.60;;;3.10;;
12721;SDS011;6425;50.316;8.114;2022-08-30T13:00:51;6.03;;;2.93;;
12721;SDS011;6425;50.316;8.114;2022-08-30T13:06:13;4.90;;;3.10;;
12721;SDS011;6425;50.316;8.114;2022-08-30T13:11:22;8.10;;;3.17;;
12721;SDS011;6425;50.316;8.114;2022-08-30T13:16:25;5.07;;;3.40;;
12721;SDS011;6425;50.316;8.114;2022-08-30T13:21:35;3.47;;;3.13;;
12721;SDS011;6425;50.316;8.114;2022-08-30T13:26:50;3.90;;;3.50;;
12721;SDS011;6425;50.316;8.114;2022-08-30T13:31:51;4.87;;;3.33;;
12721;SDS011;6425;50.316;8.114;2022-08-30T13:36:54;4.47;;;3.40;;
12721;SDS011;6425;50.316;8.114;2022-08-30T13:41:55;3.80;;;3.50;;
12721;SDS011;6425;50.316;8.114;2022-08-30T13:46:56;3.93;;;3.13;;
12721;SDS011;6425;50.316;8.114;2022-08-30T13:51:58;5.47;;;3.80;;
12721;SDS011;6425;50.316;8.114;2022-08-30T13:56:58;5.10;;;3.43;;
12721;SDS011;6425;50.316;8.114;2022-08-30T14:02:00;4.03;;;3.27;;
12721;SDS011;6425;50.316;8.114;2022-08-30T14:07:02;7.43;;;3.70;;
12721;SDS011;6425;50.316;8.114;2022-08-30T14:12:03;6.27;;;3.83;;
12721;SDS011;6425;50.316;8.114;2022-08-30T14:17:04;4.43;;;3.70;;
12721;SDS011;6425;50.316;8.114;2022-08-30T14:22:07;4.03;;;3.07;;
12721;SDS011;6425;50.316;8.114;2022-08-30T14:27:07;5.73;;;3.67;;
12721;SDS011;6425;50.316;8.114;2022-08-30T14:32:08;4.97;;;3.20;;
12721;SDS011;6425;50.316;8.114;2022-08-30T14:37:10;7.40;;;4.00;;
12721;SDS011;6425;50.316;8.114;2022-08-30T14:42:12;4.03;;;3.33;;
12721;SDS011;6425;50.316;8.114;2022-08-30T14:47:12;4.73;;;3.90;;
12721;SDS011;6425;50.316;8.114;2022-08-30T14:52:14;3.80;;;3.50;;
12721;SDS011;6425;50.316;8.114;2022-08-30T14:57:15;3.83;;;3.47;;
12721;SDS011;6425;50.316;8.114;2022-08-30T15:02:15;3.93;;;3.60;;
12721;SDS011;6425;50.316;8.114;2022-08-30T15:07:17;3.40;;;3.20;;
12721;SDS011;6425;50.316;8.114;2022-08-30T15:12:18;4.63;;;3.63;;
12721;SDS011;6425;50.316;8.114;2022-08-30T15:17:18;8.03;;;3.37;;
12721;SDS011;6425;50.316;8.114;2022-08-30T15:22:20;5.47;;;3.50;;
12721;SDS011;6425;50.316;8.114;2022-08-30T15:27:21;4.00;;;3.00;;
12721;SDS011;6425;50.316;8.114;2022-08-30T15:32:21;5.90;;;3.20;;
12721;SDS011;6425;50.316;8.114;2022-08-30T15:37:23;3.80;;;3.50;;
12721;SDS011;6425;50.316;8.114;2022-08-30T15:42:23;4.87;;;3.57;;
12721;SDS011;6425;50.316;8.114;2022-08-30T15:47:25;6.10;;;3.27;;
12721;SDS011;6425;50.316;8.114;2022-08-30T15:52:27;6.17;;;3.40;;
12721;SDS011;6425;50.316;8.114;2022-08-30T15:57:29;4.07;;;3.77;;
12721;SDS011;6425;50.316;8.114;2022-08-30T16:02:29;5.67;;;2.90;;
12721;SDS011;6425;50.316;8.114;2022-08-30T16:07:31;3.87;;;3.60;;
12721;SDS011;6425;50.316;8.114;2022-08-30T16:12:32;3.90;;;3.60;;
12721;SDS011;6425;50.316;8.114;2022-08-30T16:17:32;3.63;;;3.30;;
12721;SDS011;6425;50.316;8.114;2022-08-30T16:22:34;3.90;;;3.60;;
12721;SDS011;6425;50.316;8.114;2022-08-30T16:27:35;7.43;;;3.60;;
12721;SDS011;6425;50.316;8.114;2022-08-30T16:32:35;3.50;;;3.17;;
12721;SDS011;6425;50.316;8.114;2022-08-30T16:37:37;7.70;;;3.57;;
12721;SDS011;6425;50.316;8.114;2022-08-30T16:42:38;8.20;;;3.80;;
12721;SDS011;6425;50.316;8.114;2022-08-30T16:47:38;4.60;;;3.40;;
12721;SDS011;6425;50.316;8.114;2022-08-30T16:52:40;4.30;;;3.90;;
12721;SDS011;6425;50.316;8.114;2022-08-30T16:57:41;7.53;;;3.73;;
12721;SDS011;6425;50.316;8.114;2022-08-30T17:02:41;4.10;;;3.53;;
12721;SDS011;6425;50.316;8.114;2022-08-30T17:07:43;5.93;;;3.37;;
12721;SDS011;6425;50.316;8.114;2022-08-30T17:12:44;4.10;;;2.80;;
12721;SDS011;6425;50.316;8.114;2022-08-30T17:17:45;3.77;;;2.00;;
12721;SDS011;6425;50.316;8.114;2022-08-30T17:22:47;4.87;;;2.23;;
12721;SDS011;6425;50.316;8.114;2022-08-30T17:27:47;8.20;;;2.20;;
12721;SDS011;6425;50.316;8.114;2022-08-30T17:32:48;4.23;;;2.23;;
12721;SDS011;6425;50.316;8.114;2022-08-30T17:37:50;6.87;;;2.57;;
12721;SDS011;6425;50.316;8.114;2022-08-30T17:42:50;16.20;;;4.10;;
12721;SDS011;6425;50.316;8.114;2022-08-30T17:47:51;5.00;;;2.37;;
12721;SDS011;6425;50.316;8.114;2022-08-30T17:52:53;5.60;;;2.63;;
12721;SDS011;6425;50.316;8.114;2022-08-30T17:57:54;6.23;;;2.67;;
12721;SDS011;6425;50.316;8.114;2022-08-30T18:02:55;5.67;;;2.60;;
12721;SDS011;6425;50.316;8.114;2022-08-30T18:07:58;4.80;;;2.73;;
12721;SDS011;6425;50.316;8.114;2022-08-30T18:12:58;6.00;;;2.30;;
12721;SDS011;6425;50.316;8.114;2022-08-30T18:17:59;6.57;;;2.60;;
12721;SDS011;6425;50.316;8.114;2022-08-30T18:23:01;4.90;;;2.30;;
12721;SDS011;6425;50.316;8.114;2022-08-30T18:28:01;11.47;;;2.40;;
12721;SDS011;6425;50.316;8.114;2022-08-30T18:33:03;9.23;;;2.53;;
12721;SDS011;6425;50.316;8.114;2022-08-30T18:38:04;5.13;;;1.90;;
12721;SDS011;6425;50.316;8.114;2022-08-30T18:43:05;3.83;;;2.30;;
12721;SDS011;6425;50.316;8.114;2022-08-30T18:48:05;7.97;;;2.30;;
12721;SDS011;6425;50.316;8.114;2022-08-30T18:53:08;15.10;;;2.93;;
12721;SDS011;6425;50.316;8.114;2022-08-30T18:58:08;4.73;;;2.53;;
12721;SDS011;6425;50.316;8.114;2022-08-30T19:03:09;4.77;;;2.40;;
12721;SDS011;6425;50.316;8.114;2022-08-30T19:08:11;6.63;;;2.50;;
12721;SDS011;6425;50.316;8.114;2022-08-30T19:13:12;4.07;;;2.30;;
12721;SDS011;6425;50.316;8.114;2022-08-30T19:18:13;4.77;;;2.17;;
12721;SDS011;6425;50.316;8.114;2022-08-30T19:23:15;4.50;;;2.30;;
12721;SDS011;6425;50.316;8.114;2022-08-30T19:28:16;3.53;;;2.40;;
12721;SDS011;6425;50.316;8.114;2022-08-30T19:33:17;8.37;;;2.20;;
12721;SDS011;6425;50.316;8.114;2022-08-30T19:38:18;5.67;;;1.83;;
12721;SDS011;6425;50.316;8.114;2022-08-30T19:43:19;4.23;;;2.13;;
12721;SDS011;6425;50.316;8.114;2022-08-30T19:48:20;5.67;;;2.23;;
12721;SDS011;6425;50.316;8.114;2022-08-30T19:53:23;7.63;;;2.40;;
12721;SDS011;6425;50.316;8.114;2022-08-30T19:58:23;5.47;;;2.60;;
12721;SDS011;6425;50.316;8.114;2022-08-30T20:03:24;3.97;;;2.30;;
12721;SDS011;6425;50.316;8.114;2022-08-30T20:08:25;4.57;;;2.27;;
12721;SDS011;6425;50.316;8.114;2022-08-30T20:13:26;5.43;;;2.07;;
12721;SDS011;6425;50.316;8.114;2022-08-30T20:18:27;3.93;;;2.23;;
12721;SDS011;6425;50.316;8.114;2022-08-30T20:23:29;5.20;;;1.97;;
12721;SDS011;6425;50.316;8.114;2022-08-30T20:28:30;2.67;;;2.13;;
12721;SDS011;6425;50.316;8.114;2022-08-30T20:33:31;4.73;;;2.47;;
12721;SDS011;6425;50.316;8.114;2022-08-30T20:38:34;4.33;;;2.00;;
12721;SDS011;6425;50.316;8.114;2022-08-30T20:43:34;3.87;;;1.97;;
12721;SDS011;6425;50.316;8.114;2022-08-30T20:48:35;3.67;;;2.40;;
12721;SDS011;6425;50.316;8.114;2022-08-30T20:53:37;2.57;;;1.93;;
12721;SDS011;6425;50.316;8.114;2022-08-30T20:58:38;5.00;;;2.20;;
12721;SDS011;6425;50.316;8.114;2022-08-30T21:03:39;4.00;;;2.17;;
12721;SDS011;6425;50.316;8.114;2022-08-30T21:08:41;6.50;;;1.93;;
12721;SDS011;6425;50.316;8.114;2022-08-30T21:13:42;4.53;;;2.00;;
12721;SDS011;6425;50.316;8.114;2022-08-30T21:18:43;4.60;;;1.83;;
12721;SDS011;6425;50.316;8.114;2022-08-30T21:23:45;4.57;;;2.20;;
12721;SDS011;6425;50.316;8.114;2022-08-30T21:28:45;2.40;;;2.00;;
12721;SDS011;6425;50.316;8.114;2022-08-30T21:33:46;7.03;;;2.63;;
12721;SDS011;6425;50.316;8.114;2022-08-30T21:38:49;3.87;;;2.03;;
12721;SDS011;6425;50.316;8.114;2022-08-30T21:43:53;7.13;;;2.73;;
12721;SDS011;6425;50.316;8.114;2022-08-30T21:48:55;6.40;;;2.27;;
12721;SDS011;6425;50.316;8.114;2022-08-30T21:53:58;6.60;;;2.60;;
12721;SDS011;6425;50.316;8.114;2022-08-30T21:58:58;3.00;;;2.13;;
12721;SDS011;6425;50.316;8.114;2022-08-30T22:04:00;5.00;;;2.63;;
12721;SDS011;6425;50.316;8.114;2022-08-30T22:09:05;4.83;;;2.50;;
12721;SDS011;6425;50.316;8.114;2022-08-30T22:14:08;4.37;;;2.20;;
12721;SDS011;6425;50.316;8.114;2022-08-30T22:19:09;5.10;;;2.00;;
12721;SDS011;6425;50.316;8.114;2022-08-30T22:24:11;5.90;;;2.60;;
12721;SDS011;6425;50.316;8.114;2022-08-30T22:29:12;5.30;;;2.20;;
12721;SDS011;6425;50.316;8.114;2022-08-30T22:34:12;3.70;;;1.80;;
12721;SDS011;6425;50.316;8.114;2022-08-30T22:39:14;5.20;;;2.30;;
12721;SDS011;6425;50.316;8.114;2022-08-30T22:44:15;4.10;;;2.30;;
12721;SDS011;6425;50.316;8.114;2022-08-30T22:49:15;4.60;;;2.40;;
12721;SDS011;6425;50.316;8.114;2022-08-30T22:54:17;6.30;;;2.17;;
12721;SDS011;6425;50.316;8.114;2022-08-30T22:59:18;5.23;;;2.70;;
12721;SDS011;6425;50.316;8.114;2022-08-30T23:04:18;3.77;;;2.23;;
12721;SDS011;6425;50.316;8.114;2022-08-30T23:09:20;5.70;;;2.47;;
12721;SDS011;6425;50.316;8.114;2022-08-30T23:14:21;4.00;;;2.60;;
12721;SDS011;6425;50.316;8.114;2022-08-30T23:19:22;4.93;;;2.57;;
12721;SDS011;6425;50.316;8.114;2022-08-30T23:24:25;4.67;;;2.90;;
12721;SDS011;6425;50.316;8.114;2022-08-30T23:29:25;4.30;;;2.80;;
12721;SDS011;6425;50.316;8.114;2022-08-30T23:34:26;6.20;;;2.40;;
12721;SDS011;6425;50.316;8.114;2022-08-30T23:39:28;2.73;;;2.33;;
12721;SDS011;6425;50.316;8.114;2022-08-30T23:44:28;6.60;;;2.23;;
12721;SDS011;6425;50.316;8.114;2022-08-30T23:49:29;3.20;;;2.63;;
12721;SDS011;6425;50.316;8.114;2022-08-30T23:54:31;6.33;;;2.50;;
12721;SDS011;6425;50.316;8.114;2022-08-30T23:59:32;4.67;;;2.90;;
